Portada
METAR-TAF:

METAR-TAF

Aeropuertos :

Abu Musa, Irán

latitud: 25-52-33N, longitud: 055-02-01E, altitud: 7 m

Observación

El informe se hizo hace 32 minutos, a las 15:00 UTC
Viento 6 kt del este-noreste
Temperatura 26°C
Humedad 54%
Presión 1016 hPa
Visibilidad 10 km o más
sin nubes por debajo de 1500 m y sin presencia de cumulonimbus.

METAR: OIBA 171500Z 07006KT CAVOK 26/16 Q1016

Hora: 19:02 (15:32 UTC)


TAF: falta

Observaciones y pronósticos meteorológicos de más de 4000 aeropuertos (mensajes METAR y TAF).

Los puntos amarillos y rojos representan las estaciones disponibles.

Ponga el ratón en el punto deseado para ver el nombre de la estación.

Haga clic para ver las observaciones y los pronósticos meteorológicos.

Para cambiar el mapa : haga clic en los botones verdes con una cruz de color negro para hacer un zoom, en el botón verde con un guión para alejar o en las flechas verdes para mapas adyacentes.


METAR-TAF: